Time;durP1;ratioP1;P1;durP2;ratioP2;P2;SDS_P1;SDS_P2;PMS_P1;PMS_P2;Temp;Humidity;BMP_temperature;BMP_pressure;BME280_temperature;BME280_humidity;BME280_pressure;Samples;Min_cycle;Max_cycle;Signal;HPM_P1;HPM_P2
2023/01/10 00:01:50;;;;;;;1.00;0.67;;;30.60;99.90;;;;;;4973441;28;20221;-72
2023/01/10 00:04:18;;;;;;;2.97;0.83;;;31.00;99.90;;;;;;4973685;28;20557;-72
2023/01/10 00:06:45;;;;;;;2.60;1.00;;;31.90;99.90;;;;;;4977985;28;20191;-72
2023/01/10 00:09:13;;;;;;;6.40;0.53;;;32.10;99.90;;;;;;4973758;28;20190;-73
2023/01/10 00:14:32;;;;;;;1.87;0.80;;;32.20;99.90;;;;;;4973903;28;20249;-71
2023/01/10 00:17:00;;;;;;;1.93;0.80;;;32.00;99.90;;;;;;4973368;28;20652;-71
2023/01/10 00:19:27;;;;;;;5.57;0.73;;;31.70;99.90;;;;;;4973278;28;20183;-71
2023/01/10 00:22:03;;;;;;;2.05;0.85;;;31.30;99.90;;;;;;4973346;28;20251;-71
2023/01/10 00:24:31;;;;;;;2.83;0.70;;;32.10;99.90;;;;;;4973020;28;20176;-72
2023/01/10 00:26:58;;;;;;;3.20;0.90;;;32.30;99.90;;;;;;4972992;28;20179;-72
2023/01/10 00:29:34;;;;;;;3.03;0.70;;;32.20;99.90;;;;;;4955986;28;20572;-72
2023/01/10 00:32:01;;;;;;;2.17;0.80;;;31.40;99.90;;;;;;4973260;28;20233;-72
2023/01/10 00:34:29;;;;;;;1.40;0.82;;;31.40;99.90;;;;;;4973291;28;20250;-73
2023/01/10 00:36:57;;;;;;;3.07;0.60;;;31.30;99.90;;;;;;4955812;28;20648;-72
2023/01/10 00:39:26;;;;;;;1.80;0.70;;;31.50;99.90;;;;;;4972836;28;20183;-72
2023/01/10 00:44:38;;;;;;;3.28;0.70;;;31.60;99.90;;;;;;4985788;28;20194;-72
2023/01/10 00:47:06;;;;;;;3.67;0.88;;;31.80;99.90;;;;;;4989927;28;20667;-71
2023/01/10 00:49:33;;;;;;;1.95;0.60;;;32.40;99.90;;;;;;4973969;28;20183;-72
2023/01/10 00:52:01;;;;;;;2.00;0.70;;;32.60;96.50;;;;;;4972601;28;20291;-76
2023/01/10 00:54:28;;;;;;;1.73;0.70;;;32.20;99.30;;;;;;4973630;28;20180;-79
2023/01/10 00:56:56;;;;;;;1.52;0.57;;;32.20;99.90;;;;;;4971874;28;20203;-78
2023/01/10 00:59:23;;;;;;;1.08;0.40;;;31.80;99.10;;;;;;4985702;28;20596;-75
2023/01/10 01:01:51;;;;;;;1.07;0.57;;;32.10;99.90;;;;;;4973109;28;20202;-77
2023/01/10 01:04:19;;;;;;;2.20;0.50;;;32.20;92.90;;;;;;4972869;28;20642;-78
2023/01/10 01:06:49;;;;;;;1.60;0.60;;;31.60;97.70;;;;;;4973039;28;20664;-77
2023/01/10 01:09:17;;;;;;;2.00;0.60;;;31.90;99.90;;;;;;4972621;28;20198;-77
2023/01/10 01:11:44;;;;;;;3.15;0.68;;;32.40;91.80;;;;;;4972319;28;20197;-78
2023/01/10 01:14:12;;;;;;;4.40;0.80;;;32.10;94.90;;;;;;4972482;28;20238;-78
2023/01/10 01:16:39;;;;;;;0.88;0.45;;;32.60;93.00;;;;;;4972448;28;20183;-77
2023/01/10 01:19:06;;;;;;;1.23;0.50;;;32.50;88.20;;;;;;4972368;28;20175;-80
2023/01/10 01:21:34;;;;;;;3.33;0.77;;;32.30;96.00;;;;;;4972840;28;20210;-80
2023/01/10 01:24:01;;;;;;;2.95;0.65;;;32.50;91.90;;;;;;4955636;28;20226;-78
2023/01/10 01:26:29;;;;;;;1.88;0.63;;;32.60;92.10;;;;;;4972609;28;20219;-76
2023/01/10 01:28:56;;;;;;;1.70;0.50;;;32.60;90.30;;;;;;4972128;28;20187;-78
2023/01/10 01:31:24;;;;;;;2.88;0.50;;;32.00;91.60;;;;;;4972929;28;20547;-77
2023/01/10 01:33:51;;;;;;;1.33;0.50;;;32.30;96.40;;;;;;4972074;28;20545;-76
2023/01/10 01:36:18;;;;;;;2.25;0.70;;;32.50;97.90;;;;;;4974198;28;20179;-76
2023/01/10 01:38:46;;;;;;;1.08;0.43;;;32.70;87.40;;;;;;4976756;28;20533;-78
2023/01/10 01:44:02;;;;;;;1.75;0.60;;;33.00;95.70;;;;;;4975734;28;20209;-78
2023/01/10 01:46:31;;;;;;;1.45;0.50;;;33.20;94.40;;;;;;4976459;28;20656;-77
2023/01/10 01:48:58;;;;;;;3.10;0.65;;;33.20;94.40;;;;;;4974887;28;20184;-78
2023/01/10 01:51:29;;;;;;;1.55;0.60;;;33.00;97.40;;;;;;4975161;28;20195;-74
2023/01/10 01:54:06;;;;;;;1.15;0.50;;;32.80;95.30;;;;;;4980752;28;20230;-75
2023/01/10 01:56:42;;;;;;;1.93;0.50;;;32.90;94.10;;;;;;4976668;28;20552;-77
2023/01/10 01:59:21;;;;;;;3.03;0.47;;;32.80;93.70;;;;;;4976520;28;20179;-76
2023/01/10 02:01:56;;;;;;;1.90;0.60;;;32.80;95.70;;;;;;4975823;28;20672;-75
2023/01/10 02:04:31;;;;;;;2.58;0.57;;;32.20;95.80;;;;;;4976303;28;20274;-76
2023/01/10 02:06:59;;;;;;;2.67;0.60;;;32.30;99.10;;;;;;4976344;28;20182;-73
2023/01/10 02:09:35;;;;;;;2.35;0.50;;;32.20;99.90;;;;;;4975671;28;20195;-75
2023/01/10 02:12:03;;;;;;;1.43;0.60;;;32.00;99.30;;;;;;4976248;28;20194;-79
2023/01/10 02:14:33;;;;;;;2.00;0.60;;;31.90;99.90;;;;;;4975749;28;20387;-76
2023/01/10 02:17:00;;;;;;;1.67;0.50;;;32.00;99.90;;;;;;4975661;28;20188;-75
2023/01/10 02:19:55;;;;;;;1.70;0.63;;;32.00;99.90;;;;;;4975646;28;20614;-79
2023/01/10 02:22:46;;;;;;;1.77;0.70;;;32.10;99.90;;;;;;4976683;28;20234;-75
2023/01/10 02:25:44;;;;;;;3.72;0.70;;;32.00;99.90;;;;;;4975700;28;20183;-73
2023/01/10 02:28:34;;;;;;;4.13;1.33;;;32.00;99.90;;;;;;4977412;28;20186;-75
2023/01/10 02:31:36;;;;;;;3.30;0.73;;;31.30;99.90;;;;;;4975424;28;20191;-68
2023/01/10 02:34:13;;;;;;;4.20;0.73;;;31.50;99.90;;;;;;4975772;28;20171;-77
2023/01/10 02:36:52;;;;;;;2.93;0.77;;;31.50;99.90;;;;;;4958176;28;20179;-74
2023/01/10 02:39:48;;;;;;;3.33;0.80;;;31.60;99.90;;;;;;4975224;28;20218;-76
2023/01/10 02:42:59;;;;;;;2.77;0.73;;;31.50;99.90;;;;;;4954591;28;20382;-85
2023/01/10 02:45:28;;;;;;;3.33;0.80;;;31.70;99.90;;;;;;4987571;28;20731;-85
2023/01/10 02:47:56;;;;;;;3.30;0.83;;;31.30;99.90;;;;;;4995643;28;20273;-81
2023/01/10 02:50:42;;;;;;;3.95;0.73;;;31.40;99.90;;;;;;4984501;28;20195;-87
2023/01/10 02:53:23;;;;;;;1.27;0.50;;;31.50;99.90;;;;;;4978751;28;20187;-91
2023/01/10 02:56:18;;;;;;;1.53;0.63;;;31.30;99.90;;;;;;4979028;28;20199;-84
2023/01/10 02:59:19;;;;;;;1.83;0.57;;;30.80;99.90;;;;;;4997524;28;20182;-85
2023/01/10 03:01:58;;;;;;;2.23;0.63;;;31.10;99.90;;;;;;4955232;28;20218;-71
2023/01/10 03:04:44;;;;;;;4.93;1.07;;;31.10;99.90;;;;;;4974191;28;20181;-79
2023/01/10 03:07:20;;;;;;;3.17;0.70;;;31.20;99.90;;;;;;4976269;28;20185;-85
2023/01/10 03:09:54;;;;;;;4.57;0.97;;;31.50;99.90;;;;;;4991898;28;20179;-86
2023/01/10 03:12:55;;;;;;;2.73;0.70;;;31.60;99.90;;;;;;4995452;28;20274;-71
2023/01/10 03:15:29;;;;;;;1.83;0.80;;;31.30;99.90;;;;;;4995128;28;20226;-69
2023/01/10 03:18:01;;;;;;;3.50;0.80;;;31.00;99.90;;;;;;4983251;28;20179;-81
2023/01/10 03:20:32;;;;;;;2.23;0.70;;;30.80;99.90;;;;;;4980095;28;20492;-74
2023/01/10 03:23:04;;;;;;;3.53;0.87;;;30.90;99.90;;;;;;4980419;28;20183;-84
2023/01/10 03:25:35;;;;;;;3.23;0.70;;;30.70;99.90;;;;;;4980956;28;20179;-78
2023/01/10 03:28:41;;;;;;;1.93;0.70;;;30.60;99.90;;;;;;4980830;28;20192;-82
2023/01/10 03:31:25;;;;;;;3.53;1.07;;;30.90;99.90;;;;;;4942452;28;20195;-81
2023/01/10 03:33:54;;;;;;;4.87;0.90;;;30.60;99.90;;;;;;4977095;28;20670;-84
2023/01/10 03:36:47;;;;;;;2.10;0.80;;;30.10;99.90;;;;;;4976167;28;20195;-86
2023/01/10 03:39:20;;;;;;;3.70;0.60;;;30.70;99.90;;;;;;4972647;28;20577;-84
2023/01/10 03:42:09;;;;;;;1.20;0.63;;;30.60;99.90;;;;;;4975541;28;20219;-85
2023/01/10 03:44:57;;;;;;;0.90;0.60;;;30.60;99.90;;;;;;4975604;28;20183;-83
2023/01/10 03:47:26;;;;;;;5.43;0.82;;;30.90;99.90;;;;;;4974088;28;20203;-77
2023/01/10 03:50:06;;;;;;;3.60;0.70;;;30.60;99.90;;;;;;4974292;28;20397;-76
2023/01/10 03:52:35;;;;;;;3.70;0.70;;;30.40;99.90;;;;;;4973940;28;20255;-78
2023/01/10 03:55:05;;;;;;;1.37;0.60;;;30.40;99.90;;;;;;4974011;28;20183;-75
2023/01/10 03:57:32;;;;;;;2.27;0.50;;;30.50;99.90;;;;;;4973989;28;20194;-77
2023/01/10 04:00:00;;;;;;;3.63;0.80;;;30.60;99.90;;;;;;4972569;28;20694;-78
2023/01/10 04:02:30;;;;;;;4.10;0.87;;;30.60;99.90;;;;;;4973897;28;20635;-76
2023/01/10 04:04:58;;;;;;;3.30;0.90;;;30.30;99.90;;;;;;4973648;28;20240;-78
2023/01/10 04:07:26;;;;;;;3.23;1.00;;;30.30;99.90;;;;;;4973131;28;20277;-71
2023/01/10 04:09:54;;;;;;;4.00;0.83;;;30.60;99.90;;;;;;4956678;28;20187;-78
2023/01/10 04:12:22;;;;;;;2.93;0.70;;;30.50;99.90;;;;;;4973031;28;20220;-77
2023/01/10 04:14:50;;;;;;;1.93;0.70;;;30.40;99.90;;;;;;4966590;28;20692;-77
2023/01/10 04:17:18;;;;;;;3.73;0.80;;;30.50;99.90;;;;;;4973284;28;20183;-77
2023/01/10 04:19:46;;;;;;;5.00;0.73;;;30.60;99.90;;;;;;4973795;28;20190;-77
2023/01/10 04:22:14;;;;;;;4.63;0.90;;;30.80;99.90;;;;;;4972807;28;20230;-74
2023/01/10 04:24:43;;;;;;;1.70;0.70;;;30.70;99.90;;;;;;4972788;28;20194;-75
2023/01/10 04:27:10;;;;;;;2.40;0.70;;;30.30;99.90;;;;;;4975982;28;20186;-77
2023/01/10 04:29:38;;;;;;;3.57;1.00;;;30.50;99.90;;;;;;4973293;28;20183;-77
2023/01/10 04:32:06;;;;;;;3.57;1.07;;;30.80;99.90;;;;;;4973546;28;20213;-75
2023/01/10 04:34:34;;;;;;;2.00;0.63;;;30.60;99.90;;;;;;4973492;28;20710;-77
2023/01/10 04:37:01;;;;;;;2.53;0.60;;;30.50;99.90;;;;;;4972144;28;20237;-77
2023/01/10 04:39:30;;;;;;;3.47;0.60;;;30.40;99.90;;;;;;4957051;28;20187;-77
2023/01/10 04:41:57;;;;;;;1.43;0.50;;;30.50;99.90;;;;;;4956219;28;20219;-78
2023/01/10 04:44:25;;;;;;;3.63;0.70;;;30.40;99.90;;;;;;4974391;28;20724;-77
2023/01/10 04:46:53;;;;;;;2.37;0.73;;;30.60;99.90;;;;;;4955476;28;20588;-75
2023/01/10 04:49:21;;;;;;;2.93;0.80;;;30.50;99.90;;;;;;4973409;28;20175;-73
2023/01/10 04:51:49;;;;;;;5.17;0.77;;;30.30;99.90;;;;;;4972767;28;20190;-78
2023/01/10 04:54:21;;;;;;;0.93;0.60;;;30.20;99.90;;;;;;4973411;28;20518;-77
2023/01/10 04:56:49;;;;;;;2.63;0.70;;;30.30;99.90;;;;;;4973054;28;20179;-77
2023/01/10 04:59:17;;;;;;;6.23;1.03;;;30.40;99.90;;;;;;4972937;28;20221;-76
2023/01/10 05:01:45;;;;;;;2.23;0.83;;;29.90;99.90;;;;;;4973487;28;20309;-74
2023/01/10 05:04:13;;;;;;;2.90;0.60;;;29.90;99.90;;;;;;4973575;28;20176;-76
2023/01/10 05:06:41;;;;;;;4.57;0.80;;;;;;;;;;4973588;28;20959;-77
2023/01/10 05:09:08;;;;;;;3.40;0.80;;;;;;;;;;4973320;28;20266;-76
2023/01/10 05:11:36;;;;;;;3.10;0.93;;;;;;;;;;4972441;28;20548;-77
2023/01/10 05:14:04;;;;;;;4.43;0.80;;;30.00;99.90;;;;;;4972800;28;20223;-75
2023/01/10 05:16:32;;;;;;;2.10;1.07;;;30.10;99.90;;;;;;4973630;28;20242;-77
2023/01/10 05:19:00;;;;;;;2.80;1.00;;;30.00;99.90;;;;;;4972904;28;20544;-75
2023/01/10 05:21:27;;;;;;;3.27;0.60;;;30.30;99.90;;;;;;4955492;28;20202;-77
2023/01/10 05:23:55;;;;;;;1.57;0.80;;;;;;;;;;4955847;28;20565;-78
2023/01/10 05:26:23;;;;;;;2.70;0.70;;;30.40;99.90;;;;;;4972884;28;20191;-76
2023/01/10 05:28:51;;;;;;;3.30;0.93;;;30.20;99.90;;;;;;4972510;28;20191;-78
2023/01/10 05:31:19;;;;;;;2.67;0.90;;;30.00;99.90;;;;;;4972937;28;20604;-75
2023/01/10 05:33:49;;;;;;;4.77;0.90;;;30.00;99.90;;;;;;4973190;28;20218;-74
2023/01/10 05:36:18;;;;;;;2.37;0.87;;;29.80;99.90;;;;;;4981852;28;20187;-75
2023/01/10 05:38:46;;;;;;;3.90;1.37;;;29.80;99.90;;;;;;4972631;28;20183;-78
2023/01/10 05:41:14;;;;;;;4.20;0.90;;;29.90;99.90;;;;;;4972389;28;20219;-78
2023/01/10 05:43:41;;;;;;;2.63;0.70;;;29.70;99.90;;;;;;4955033;28;20603;-77
2023/01/10 05:46:10;;;;;;;2.47;0.97;;;30.10;99.90;;;;;;4972702;28;20184;-75
2023/01/10 05:48:38;;;;;;;8.57;1.10;;;30.00;99.90;;;;;;4973039;28;20182;-74
2023/01/10 05:51:06;;;;;;;3.80;0.90;;;29.50;99.90;;;;;;4972496;28;20195;-74
2023/01/10 05:53:33;;;;;;;5.77;0.80;;;29.10;99.90;;;;;;4972518;28;20171;-75
2023/01/10 05:56:03;;;;;;;2.53;0.80;;;28.70;99.90;;;;;;4972601;28;20182;-75
2023/01/10 05:58:31;;;;;;;2.70;1.20;;;28.80;99.90;;;;;;4972234;28;20547;-73
2023/01/10 06:00:58;;;;;;;3.70;0.83;;;29.00;99.90;;;;;;4972124;28;20207;-75
2023/01/10 06:03:27;;;;;;;2.53;0.80;;;29.20;99.90;;;;;;4972979;28;20195;-76
2023/01/10 06:05:56;;;;;;;3.90;1.00;;;29.40;99.90;;;;;;4972160;28;20446;-76
2023/01/10 06:08:24;;;;;;;2.00;0.60;;;29.00;99.90;;;;;;4972432;28;20183;-75
2023/01/10 06:10:52;;;;;;;3.00;0.80;;;28.60;99.90;;;;;;4972028;28;20183;-75
2023/01/10 06:13:20;;;;;;;2.60;0.70;;;28.40;99.90;;;;;;4971842;28;20295;-76
2023/01/10 06:15:48;;;;;;;3.80;1.30;;;28.20;99.90;;;;;;4971901;28;20239;-74
2023/01/10 06:18:16;;;;;;;3.93;0.90;;;28.20;99.90;;;;;;4972402;28;20258;-76
2023/01/10 06:20:45;;;;;;;3.07;0.80;;;28.30;99.90;;;;;;4971374;28;20187;-74
2023/01/10 06:23:13;;;;;;;2.90;0.60;;;28.00;99.90;;;;;;4973243;28;20184;-74
2023/01/10 06:25:41;;;;;;;4.03;0.70;;;28.10;99.90;;;;;;4975560;28;20191;-78
2023/01/10 06:28:11;;;;;;;2.10;0.73;;;28.40;99.90;;;;;;4975414;28;20195;-80
2023/01/10 06:30:42;;;;;;;9.37;1.17;;;28.50;99.90;;;;;;4975602;28;20179;-76
2023/01/10 06:33:11;;;;;;;4.40;0.77;;;28.60;99.90;;;;;;4975417;28;20175;-77
2023/01/10 06:35:39;;;;;;;3.87;0.70;;;28.50;99.90;;;;;;4975344;28;20656;-77
2023/01/10 06:38:07;;;;;;;3.57;0.70;;;28.60;99.90;;;;;;4975626;28;20183;-76
2023/01/10 06:40:35;;;;;;;3.50;0.60;;;28.30;99.90;;;;;;4975534;28;20203;-73
2023/01/10 06:43:02;;;;;;;2.43;0.63;;;28.20;99.90;;;;;;4957509;28;20221;-76
2023/01/10 06:45:30;;;;;;;1.83;0.60;;;28.00;99.90;;;;;;4975520;28;20175;-75
2023/01/10 06:47:58;;;;;;;3.57;0.67;;;27.80;99.90;;;;;;4975307;28;20242;-74
2023/01/10 06:50:26;;;;;;;3.97;0.60;;;27.50;99.90;;;;;;4975070;28;20187;-77
2023/01/10 06:53:02;;;;;;;2.40;0.50;;;27.50;99.90;;;;;;4974670;28;20195;-76
2023/01/10 06:55:30;;;;;;;2.37;0.60;;;27.70;99.90;;;;;;4975652;28;20597;-80
2023/01/10 06:58:03;;;;;;;2.37;0.60;;;27.60;99.90;;;;;;4975175;28;20550;-78
2023/01/10 07:00:32;;;;;;;1.90;0.53;;;27.50;99.90;;;;;;4975396;28;20187;-77
2023/01/10 07:03:01;;;;;;;2.60;0.53;;;27.60;99.90;;;;;;4975022;28;20331;-78
2023/01/10 07:05:30;;;;;;;3.90;0.70;;;27.80;99.90;;;;;;4957290;28;20180;-78
2023/01/10 07:08:00;;;;;;;2.90;1.00;;;27.60;99.90;;;;;;4957976;28;20234;-75
2023/01/10 07:10:28;;;;;;;0.60;0.40;;;27.60;99.90;;;;;;4975173;28;20210;-76
2023/01/10 07:12:57;;;;;;;4.53;0.70;;;27.40;99.90;;;;;;4974366;28;20560;-76
2023/01/10 07:15:29;;;;;;;1.57;0.50;;;27.10;99.90;;;;;;4974624;28;20231;-77
2023/01/10 07:18:00;;;;;;;4.90;1.17;;;27.20;99.90;;;;;;4974807;28;20209;-76
2023/01/10 07:20:28;;;;;;;2.07;0.60;;;27.20;99.90;;;;;;4974850;28;20179;-74
2023/01/10 07:23:00;;;;;;;2.60;0.60;;;27.10;99.90;;;;;;4974490;28;20230;-77
2023/01/10 07:25:29;;;;;;;5.37;0.80;;;27.00;99.90;;;;;;4974707;28;20207;-76
2023/01/10 07:27:57;;;;;;;2.07;0.60;;;27.00;99.90;;;;;;4974427;28;20648;-74
2023/01/10 07:30:25;;;;;;;15.87;0.90;;;26.90;99.90;;;;;;4974969;28;20186;-74
2023/01/10 07:32:57;;;;;;;5.10;0.90;;;26.70;99.90;;;;;;4974444;28;20659;-77
2023/01/10 07:35:25;;;;;;;2.53;0.50;;;26.80;99.90;;;;;;4979213;28;20592;-78
2023/01/10 07:37:53;;;;;;;2.93;0.80;;;26.80;99.90;;;;;;4994043;28;20183;-79
2023/01/10 07:40:21;;;;;;;2.63;0.50;;;26.70;99.90;;;;;;4976346;28;20174;-75
2023/01/10 07:42:48;;;;;;;3.20;0.50;;;26.60;99.90;;;;;;4979170;28;20249;-76
2023/01/10 07:45:16;;;;;;;3.07;0.70;;;26.70;99.90;;;;;;4974054;28;20198;-74
2023/01/10 07:47:44;;;;;;;2.33;0.40;;;26.40;99.90;;;;;;4957174;28;20191;-77
2023/01/10 07:50:12;;;;;;;4.07;0.60;;;26.50;99.90;;;;;;4974231;28;20583;-80
2023/01/10 07:52:39;;;;;;;3.70;0.83;;;26.10;99.90;;;;;;4973834;28;20216;-77
2023/01/10 07:55:08;;;;;;;1.17;0.50;;;25.90;99.90;;;;;;4974570;28;20197;-79
2023/01/10 07:57:36;;;;;;;3.57;0.70;;;25.80;99.90;;;;;;4974562;28;20706;-82
2023/01/10 08:00:04;;;;;;;1.23;0.50;;;25.80;99.90;;;;;;4980330;28;20182;-71
2023/01/10 08:02:32;;;;;;;4.73;0.37;;;25.90;99.90;;;;;;4979429;28;20225;-77
2023/01/10 08:04:59;;;;;;;6.10;0.70;;;26.00;99.90;;;;;;4974439;28;20192;-71
2023/01/10 08:07:30;;;;;;;1.00;0.47;;;25.90;99.90;;;;;;4957120;28;20191;-71
2023/01/10 08:09:58;;;;;;;3.60;1.07;;;25.70;99.90;;;;;;4975151;28;20175;-69
2023/01/10 08:12:26;;;;;;;3.07;0.60;;;25.60;99.90;;;;;;4956953;28;20191;-72
2023/01/10 08:14:54;;;;;;;1.47;0.70;;;25.50;99.90;;;;;;4974145;28;20241;-69
2023/01/10 08:17:21;;;;;;;2.80;0.60;;;25.50;99.90;;;;;;4975292;28;20189;-68
2023/01/10 08:19:49;;;;;;;2.63;0.77;;;25.50;99.90;;;;;;4974916;28;20280;-74
2023/01/10 08:22:17;;;;;;;3.60;0.80;;;25.30;99.90;;;;;;4974611;28;20250;-72
2023/01/10 08:24:45;;;;;;;3.40;0.60;;;25.40;99.90;;;;;;4974684;28;20182;-70
2023/01/10 08:27:13;;;;;;;3.47;0.80;;;25.30;99.90;;;;;;4957437;28;20238;-72
2023/01/10 08:29:41;;;;;;;4.23;0.80;;;25.30;99.90;;;;;;4973838;28;20183;-73
2023/01/10 08:32:09;;;;;;;2.40;0.53;;;25.30;99.90;;;;;;4974287;28;20191;-70
2023/01/10 08:34:36;;;;;;;1.60;0.63;;;25.10;99.90;;;;;;4974631;28;20229;-72
2023/01/10 08:37:04;;;;;;;3.27;0.93;;;25.00;99.90;;;;;;4953966;28;20280;-71
2023/01/10 08:39:34;;;;;;;2.30;0.57;;;24.70;99.90;;;;;;4972616;28;20194;-72
2023/01/10 08:42:02;;;;;;;2.93;0.90;;;24.40;99.90;;;;;;4957214;28;20251;-71
2023/01/10 08:44:29;;;;;;;1.97;0.70;;;24.30;99.90;;;;;;4983125;28;20666;-68
2023/01/10 08:46:57;;;;;;;1.53;0.50;;;24.20;99.90;;;;;;4955241;28;20222;-73
2023/01/10 08:49:25;;;;;;;1.83;0.60;;;24.10;99.90;;;;;;4973190;28;20190;-71
2023/01/10 08:51:53;;;;;;;2.13;0.60;;;23.90;99.90;;;;;;4973027;28;20194;-68
2023/01/10 08:54:21;;;;;;;1.87;0.70;;;23.80;99.90;;;;;;4973503;28;20208;-68
2023/01/10 08:56:48;;;;;;;4.13;0.73;;;23.80;99.90;;;;;;4972879;28;20265;-70
2023/01/10 08:59:17;;;;;;;2.53;0.73;;;23.60;99.90;;;;;;4972585;28;20182;-74
2023/01/10 09:01:44;;;;;;;4.80;0.90;;;23.50;99.90;;;;;;4972949;28;20207;-73
2023/01/10 09:04:12;;;;;;;2.83;0.90;;;23.50;99.90;;;;;;4972974;28;20179;-74
2023/01/10 09:06:40;;;;;;;3.43;0.67;;;23.40;99.90;;;;;;4954994;28;20193;-73
2023/01/10 09:09:09;;;;;;;3.50;0.60;;;23.40;99.90;;;;;;4972597;28;20293;-73
2023/01/10 09:11:37;;;;;;;4.50;1.03;;;23.40;99.90;;;;;;4972777;28;20198;-69
2023/01/10 09:14:06;;;;;;;2.83;0.73;;;23.30;99.90;;;;;;4972306;28;20234;-71
2023/01/10 09:16:34;;;;;;;1.57;0.80;;;23.30;99.90;;;;;;4972847;28;20183;-75
2023/01/10 09:19:02;;;;;;;2.40;0.77;;;23.40;99.90;;;;;;4975401;28;20614;-74
2023/01/10 09:21:29;;;;;;;4.27;0.53;;;23.40;99.90;;;;;;4985253;28;20276;-74
2023/01/10 09:23:57;;;;;;;4.13;1.20;;;23.30;99.90;;;;;;4987842;28;20179;-74
2023/01/10 09:26:25;;;;;;;3.77;0.90;;;23.30;99.90;;;;;;4973596;28;20171;-71
2023/01/10 09:28:53;;;;;;;2.80;0.63;;;23.10;99.90;;;;;;4956526;28;20193;-75
2023/01/10 09:31:21;;;;;;;3.67;0.80;;;23.10;99.90;;;;;;4973684;28;20182;-73
2023/01/10 09:33:48;;;;;;;2.83;0.87;;;23.10;99.90;;;;;;4973026;28;20179;-70
2023/01/10 09:36:16;;;;;;;2.03;0.70;;;23.00;99.90;;;;;;4973573;28;20223;-71
2023/01/10 09:38:48;;;;;;;3.73;0.93;;;23.10;99.90;;;;;;4974060;28;20175;-72
2023/01/10 09:42:06;;;;;;;3.87;0.80;;;23.10;99.90;;;;;;4973326;28;20203;-73
2023/01/10 09:44:45;;;;;;;7.43;0.90;;;;;;;;;;4912797;29;20187;-71
2023/01/10 09:47:21;;;;;;;4.87;1.00;;;;;;;;;;4895591;29;20229;-74
2023/01/10 09:49:49;;;;;;;3.23;0.73;;;;;;;;;;4926419;29;20191;-73
2023/01/10 09:52:22;;;;;;;2.73;0.77;;;;;;;;;;4954380;29;20176;-68
2023/01/10 09:54:50;;;;;;;2.50;0.60;;;;;;;;;;4973109;28;20203;-68
2023/01/10 09:57:19;;;;;;;2.80;0.83;;;;;;;;;;4957673;28;20245;-68
2023/01/10 09:59:50;;;;;;;3.37;0.60;;;22.90;99.90;;;;;;4977179;28;20198;-74
2023/01/10 10:02:23;;;;;;;4.27;0.90;;;;;;;;;;4977542;28;20211;-68
2023/01/10 10:05:11;;;;;;;1.77;0.80;;;;;;;;;;4977177;28;20577;-72
2023/01/10 10:07:38;;;;;;;9.97;0.90;;;;;;;;;;4959805;28;20179;-70
2023/01/10 10:10:06;;;;;;;2.50;0.60;;;;;;;;;;4977228;28;20671;-69
2023/01/10 10:12:46;;;;;;;3.13;0.90;;;;;;;;;;4977359;28;20340;-68
2023/01/10 10:15:16;;;;;;;3.87;0.67;;;;;;;;;;4976743;28;20261;-69
2023/01/10 10:17:46;;;;;;;3.40;0.80;;;;;;;;;;4977010;28;20190;-68
2023/01/10 10:20:31;;;;;;;2.23;0.60;;;;;;;;;;4977187;28;20194;-68
2023/01/10 10:23:17;;;;;;;3.43;1.17;;;;;;;;;;4976805;28;20242;-72
2023/01/10 10:25:51;;;;;;;6.33;0.97;;;;;;;;;;4977458;28;20191;-68
2023/01/10 10:28:36;;;;;;;4.30;1.00;;;;;;;;;;4959901;28;20186;-69
2023/01/10 10:31:16;;;;;;;2.50;0.80;;;;;;;;;;4977270;28;20190;-73
2023/01/10 10:33:46;;;;;;;5.50;1.03;;;;;;;;;;4976931;28;20190;-69
2023/01/10 10:36:36;;;;;;;3.00;0.70;;;;;;;;;;4976562;28;20258;-68
2023/01/10 10:39:05;;;;;;;1.47;0.67;;;;;;;;;;4974230;28;20234;-75
2023/01/10 10:41:32;;;;;;;3.37;0.80;;;;;;;;;;4959186;28;20274;-69
2023/01/10 10:44:03;;;;;;;2.87;0.80;;;;;;;;;;4976827;28;20183;-68
2023/01/10 10:46:31;;;;;;;3.17;0.80;;;;;;;;;;4976801;28;20179;-74
2023/01/10 10:48:59;;;;;;;2.27;0.73;;;;;;;;;;4977002;28;20237;-70
2023/01/10 10:51:26;;;;;;;5.30;1.10;;;;;;;;;;4959436;28;20198;-69
2023/01/10 10:53:55;;;;;;;5.77;0.97;;;;;;;;;;4976786;28;20546;-75
2023/01/10 10:56:24;;;;;;;1.80;0.80;;;;;;;;;;4976669;28;20183;-69
2023/01/10 10:58:54;;;;;;;2.13;0.90;;;;;;;;;;4959155;28;20186;-72
2023/01/10 11:01:21;;;;;;;0.90;0.50;;;;;;;;;;4976512;28;20221;-70
2023/01/10 11:04:09;;;;;;;1.07;0.50;;;;;;;;;;4976513;28;20187;-72
2023/01/10 11:06:39;;;;;;;2.57;0.90;;;;;;;;;;4959131;28;20653;-69
2023/01/10 11:09:07;;;;;;;4.33;0.93;;;;;;;;;;4975894;28;20189;-68
2023/01/10 11:11:37;;;;;;;7.40;0.90;;;;;;;;;;4976434;28;20190;-69
2023/01/10 11:14:06;;;;;;;1.37;0.70;;;;;;;;;;4976406;28;20233;-70
2023/01/10 11:16:38;;;;;;;2.50;0.77;;;;;;;;;;4958879;28;20209;-70
2023/01/10 11:19:21;;;;;;;3.73;0.80;;;;;;;;;;4976351;28;20377;-70
2023/01/10 11:21:56;;;;;;;2.73;0.60;;;;;;;;;;4976885;28;20241;-69
2023/01/10 11:24:26;;;;;;;4.53;0.70;;;;;;;;;;4976664;28;20218;-69
2023/01/10 11:26:53;;;;;;;1.77;0.70;;;;;;;;;;4976023;28;20682;-68
2023/01/10 11:29:31;;;;;;;4.53;1.13;;;;;;;;;;4975959;28;20253;-70
2023/01/10 11:31:59;;;;;;;3.87;0.90;;;;;;;;;;4976053;28;20526;-69
2023/01/10 11:34:29;;;;;;;2.90;0.77;;;;;;;;;;4975146;28;20687;-69
2023/01/10 11:37:03;;;;;;;1.33;0.77;;;;;;;;;;4975425;28;20651;-70
2023/01/10 11:39:33;;;;;;;4.57;0.80;;;;;;;;;;4975777;28;20243;-69
2023/01/10 11:42:23;;;;;;;4.53;1.20;;;;;;;;;;4975324;28;20222;-69
2023/01/10 11:44:50;;;;;;;1.47;0.77;;;;;;;;;;4968088;28;20671;-70
2023/01/10 11:47:19;;;;;;;4.00;0.90;;;;;;;;;;4975803;28;20197;-69
2023/01/10 11:49:47;;;;;;;1.57;0.60;;;;;;;;;;4975437;28;20191;-70
2023/01/10 11:52:24;;;;;;;5.57;0.70;;;;;;;;;;4975636;28;20183;-70
2023/01/10 11:54:55;;;;;;;4.23;0.80;;;;;;;;;;4975449;28;20543;-73
2023/01/10 11:57:24;;;;;;;1.93;0.80;;;;;;;;;;4975767;28;20289;-70
2023/01/10 11:59:53;;;;;;;2.17;0.67;;;;;;;;;;4975677;28;20183;-72
2023/01/10 12:02:25;;;;;;;5.60;0.93;;;;;;;;;;4975257;28;20218;-71
2023/01/10 12:04:53;;;;;;;1.97;0.87;;;;;;;;;;4975547;28;20209;-72
2023/01/10 12:07:21;;;;;;;2.23;0.77;;;;;;;;;;4975384;28;20177;-70
2023/01/10 12:09:56;;;;;;;4.07;1.03;;;;;;;;;;4975244;28;20183;-71
2023/01/10 12:12:31;;;;;;;5.93;0.90;;;;;;;;;;4974886;28;20284;-69
2023/01/10 12:14:59;;;;;;;1.63;0.70;;;;;;;;;;4974936;28;20221;-71
2023/01/10 12:17:30;;;;;;;1.33;0.83;;;;;;;;;;4975223;28;20183;-70
2023/01/10 12:20:00;;;;;;;2.93;1.07;;;;;;;;;;4957105;28;20227;-72
2023/01/10 12:22:31;;;;;;;2.40;0.70;;;;;;;;;;4974336;28;20211;-70
2023/01/10 12:25:01;;;;;;;4.80;0.80;;;;;;;;;;4975161;28;20190;-70
2023/01/10 12:27:29;;;;;;;1.93;0.70;;;;;;;;;;4974972;28;20266;-72
2023/01/10 12:29:56;;;;;;;1.63;0.60;;;;;;;;;;4974979;28;20182;-69
2023/01/10 12:32:26;;;;;;;3.90;0.80;;;;;;;;;;4974641;28;20182;-69
2023/01/10 12:34:57;;;;;;;2.93;0.70;;;;;;;;;;4975116;28;20183;-71
2023/01/10 12:37:51;;;;;;;3.90;0.70;;;;;;;;;;4974848;28;20176;-71
2023/01/10 12:40:38;;;;;;;2.87;0.73;;;;;;;;;;4973142;28;20195;-69
2023/01/10 12:46:00;;;;;;;5.03;1.50;;;;;;;;;;4975144;28;20252;-71
2023/01/10 12:48:36;;;;;;;5.37;1.10;;;;;;;;;;4974807;28;20286;-71
2023/01/10 12:51:07;;;;;;;4.70;1.07;;;;;;;;;;4974290;28;20645;-69
2023/01/10 12:53:43;;;;;;;2.87;1.00;;;;;;;;;;4974641;28;20183;-70
2023/01/10 12:56:15;;;;;;;7.80;0.90;;;22.40;99.90;;;;;;4974636;28;20181;-70
2023/01/10 12:58:50;;;;;;;2.83;0.60;;;22.30;99.90;;;;;;4974536;28;20222;-72
2023/01/10 13:01:26;;;;;;;3.10;0.70;;;22.30;99.90;;;;;;4974144;28;20301;-71
2023/01/10 13:04:00;;;;;;;2.10;0.83;;;22.30;99.90;;;;;;4974246;28;20671;-73
2023/01/10 13:06:48;;;;;;;3.37;0.80;;;22.30;99.90;;;;;;4974598;28;20237;-72
2023/01/10 13:09:23;;;;;;;1.73;0.80;;;22.30;99.90;;;;;;4974337;28;20632;-72
2023/01/10 13:12:08;;;;;;;2.63;0.80;;;22.20;99.90;;;;;;4974115;28;20182;-70
2023/01/10 13:14:55;;;;;;;1.30;0.80;;;22.20;99.90;;;;;;4974437;28;20265;-71
2023/01/10 13:17:32;;;;;;;3.73;0.90;;;22.10;99.90;;;;;;4974284;28;20178;-68
2023/01/10 13:20:26;;;;;;;3.17;0.90;;;22.10;99.90;;;;;;4956493;28;20182;-68
2023/01/10 13:23:00;;;;;;;3.03;0.80;;;22.00;99.90;;;;;;4954318;28;20243;-73
2023/01/10 13:25:36;;;;;;;1.57;0.60;;;22.00;99.90;;;;;;4955197;29;20195;-69
2023/01/10 13:28:15;;;;;;;2.20;0.80;;;22.00;99.90;;;;;;4954912;29;20194;-68
2023/01/10 13:30:43;;;;;;;1.40;0.60;;;22.00;99.90;;;;;;4967221;28;20175;-69
2023/01/10 13:33:41;;;;;;;3.33;0.83;;;22.00;99.90;;;;;;4976520;28;20187;-72
2023/01/10 13:36:25;;;;;;;3.27;0.93;;;22.00;99.90;;;;;;4978392;28;20202;-71
2023/01/10 13:39:01;;;;;;;6.80;1.37;;;21.90;99.90;;;;;;4978034;28;20206;-69
2023/01/10 13:45:15;;;;;;;4.20;1.00;;;21.90;99.90;;;;;;4978100;28;20233;-69
2023/01/10 13:47:45;;;;;;;6.17;0.80;;;21.90;99.90;;;;;;4946470;28;20193;-72
2023/01/10 13:50:27;;;;;;;3.70;0.73;;;21.90;99.90;;;;;;4977731;28;20578;-73
2023/01/10 13:53:07;;;;;;;3.00;1.23;;;21.80;99.90;;;;;;4977640;28;20187;-69